Sao Paulo, Brazil
Current Conditions -  °F | °C
As of 11:00 PM on Tuesday 25 Nov 2014 (Local Time) from SBMT Reporting Station
Haze Haze  
Wind Chill: 22°   Ceiling: 3000
Heat Index: 22°   Visibility: 3mi
Dew Point: 19°   Wind: 9mph
Humidity: 83%   Direction: 90°E
Pressure: 29.91"   Gusts: NA
Location:  23.53°S, 46.63°W
Report Text: SBMT 260100Z 09008KT 5000 BR BKN030 22/19 Q1013
Loading
Personal Weather Stations






























Interactive Weather Map New forecast layout! Learn more

10-Day Weather Forecast

Advertisements
Track Severe Weather on mobile